sensor_id;sensor_type;location;lat;lon;timestamp;P1;durP1;ratioP1;P2;durP2;ratioP2
3185;SDS011;1604;53.700;10.252;2024-02-28T00:02:40;25.97;;;17.70;;
3185;SDS011;1604;53.700;10.252;2024-02-28T00:05:42;22.00;;;14.80;;
3185;SDS011;1604;53.700;10.252;2024-02-28T00:08:45;23.17;;;15.37;;
3185;SDS011;1604;53.700;10.252;2024-02-28T00:11:49;24.23;;;16.53;;
3185;SDS011;1604;53.700;10.252;2024-02-28T00:14:51;25.77;;;16.47;;
3185;SDS011;1604;53.700;10.252;2024-02-28T00:17:54;24.30;;;16.20;;
3185;SDS011;1604;53.700;10.252;2024-02-28T00:20:56;23.20;;;16.07;;
3185;SDS011;1604;53.700;10.252;2024-02-28T00:23:59;24.13;;;16.57;;
3185;SDS011;1604;53.700;10.252;2024-02-28T00:27:02;23.57;;;16.80;;
3185;SDS011;1604;53.700;10.252;2024-02-28T00:30:04;30.13;;;19.20;;
3185;SDS011;1604;53.700;10.252;2024-02-28T00:33:07;27.73;;;18.70;;
3185;SDS011;1604;53.700;10.252;2024-02-28T00:36:09;23.93;;;15.43;;
3185;SDS011;1604;53.700;10.252;2024-02-28T00:39:11;26.87;;;16.07;;
3185;SDS011;1604;53.700;10.252;2024-02-28T00:42:14;26.93;;;18.13;;
3185;SDS011;1604;53.700;10.252;2024-02-28T00:45:16;30.17;;;17.50;;
3185;SDS011;1604;53.700;10.252;2024-02-28T00:48:18;22.93;;;16.60;;
3185;SDS011;1604;53.700;10.252;2024-02-28T00:51:20;27.80;;;17.80;;
3185;SDS011;1604;53.700;10.252;2024-02-28T00:54:22;29.30;;;18.30;;
3185;SDS011;1604;53.700;10.252;2024-02-28T00:57:26;27.93;;;18.13;;
3185;SDS011;1604;53.700;10.252;2024-02-28T01:00:28;29.43;;;19.00;;
3185;SDS011;1604;53.700;10.252;2024-02-28T01:03:30;28.20;;;18.80;;
3185;SDS011;1604;53.700;10.252;2024-02-28T01:06:32;29.70;;;18.90;;
3185;SDS011;1604;53.700;10.252;2024-02-28T01:09:34;31.67;;;19.00;;
3185;SDS011;1604;53.700;10.252;2024-02-28T01:12:37;29.40;;;20.00;;
3185;SDS011;1604;53.700;10.252;2024-02-28T01:15:40;27.47;;;18.40;;
3185;SDS011;1604;53.700;10.252;2024-02-28T01:18:42;30.10;;;19.97;;
3185;SDS011;1604;53.700;10.252;2024-02-28T01:21:44;30.43;;;19.03;;
3185;SDS011;1604;53.700;10.252;2024-02-28T01:24:46;29.00;;;17.40;;
3185;SDS011;1604;53.700;10.252;2024-02-28T01:27:49;27.13;;;18.80;;
3185;SDS011;1604;53.700;10.252;2024-02-28T01:30:51;30.93;;;17.77;;
3185;SDS011;1604;53.700;10.252;2024-02-28T01:33:53;30.50;;;19.23;;
3185;SDS011;1604;53.700;10.252;2024-02-28T01:36:55;31.83;;;20.23;;
3185;SDS011;1604;53.700;10.252;2024-02-28T01:39:57;39.73;;;21.00;;
3185;SDS011;1604;53.700;10.252;2024-02-28T01:43:03;41.07;;;22.87;;
3185;SDS011;1604;53.700;10.252;2024-02-28T01:46:11;37.60;;;22.37;;
3185;SDS011;1604;53.700;10.252;2024-02-28T01:49:22;35.73;;;21.50;;
3185;SDS011;1604;53.700;10.252;2024-02-28T01:52:24;35.00;;;20.40;;
3185;SDS011;1604;53.700;10.252;2024-02-28T01:55:27;30.47;;;20.00;;
3185;SDS011;1604;53.700;10.252;2024-02-28T01:58:30;32.70;;;20.13;;
3185;SDS011;1604;53.700;10.252;2024-02-28T02:01:32;33.03;;;19.70;;
3185;SDS011;1604;53.700;10.252;2024-02-28T02:04:36;33.43;;;20.17;;
3185;SDS011;1604;53.700;10.252;2024-02-28T02:07:37;38.73;;;21.37;;
3185;SDS011;1604;53.700;10.252;2024-02-28T02:10:41;42.43;;;23.13;;
3185;SDS011;1604;53.700;10.252;2024-02-28T02:13:51;41.37;;;22.30;;
3185;SDS011;1604;53.700;10.252;2024-02-28T02:16:55;39.67;;;22.73;;
3185;SDS011;1604;53.700;10.252;2024-02-28T02:19:57;44.23;;;23.97;;
3185;SDS011;1604;53.700;10.252;2024-02-28T02:23:00;42.27;;;23.40;;
3185;SDS011;1604;53.700;10.252;2024-02-28T02:26:03;42.90;;;23.27;;
3185;SDS011;1604;53.700;10.252;2024-02-28T02:29:05;40.67;;;22.80;;
3185;SDS011;1604;53.700;10.252;2024-02-28T02:32:08;39.00;;;23.57;;
3185;SDS011;1604;53.700;10.252;2024-02-28T02:35:10;43.07;;;25.27;;
3185;SDS011;1604;53.700;10.252;2024-02-28T02:38:14;41.70;;;23.63;;
3185;SDS011;1604;53.700;10.252;2024-02-28T02:41:16;40.97;;;20.90;;
3185;SDS011;1604;53.700;10.252;2024-02-28T02:44:19;37.77;;;21.90;;
3185;SDS011;1604;53.700;10.252;2024-02-28T02:47:21;37.87;;;22.90;;
3185;SDS011;1604;53.700;10.252;2024-02-28T02:50:23;37.73;;;20.97;;
3185;SDS011;1604;53.700;10.252;2024-02-28T02:53:26;42.27;;;22.27;;
3185;SDS011;1604;53.700;10.252;2024-02-28T02:56:28;44.90;;;23.27;;
3185;SDS011;1604;53.700;10.252;2024-02-28T02:59:30;43.97;;;24.03;;
3185;SDS011;1604;53.700;10.252;2024-02-28T03:02:32;45.77;;;25.60;;
3185;SDS011;1604;53.700;10.252;2024-02-28T03:05:34;49.70;;;26.03;;
3185;SDS011;1604;53.700;10.252;2024-02-28T03:08:37;50.00;;;27.67;;
3185;SDS011;1604;53.700;10.252;2024-02-28T03:11:39;52.77;;;25.33;;
3185;SDS011;1604;53.700;10.252;2024-02-28T03:14:42;56.93;;;25.37;;
3185;SDS011;1604;53.700;10.252;2024-02-28T03:17:44;55.23;;;23.67;;
3185;SDS011;1604;53.700;10.252;2024-02-28T03:20:46;49.20;;;24.23;;
3185;SDS011;1604;53.700;10.252;2024-02-28T03:23:49;48.90;;;22.40;;
3185;SDS011;1604;53.700;10.252;2024-02-28T03:26:51;50.33;;;23.80;;
3185;SDS011;1604;53.700;10.252;2024-02-28T03:29:53;44.87;;;22.17;;
3185;SDS011;1604;53.700;10.252;2024-02-28T03:32:55;47.73;;;21.23;;
3185;SDS011;1604;53.700;10.252;2024-02-28T03:35:57;45.70;;;19.63;;
3185;SDS011;1604;53.700;10.252;2024-02-28T03:39:00;43.73;;;21.07;;
3185;SDS011;1604;53.700;10.252;2024-02-28T03:42:02;43.07;;;19.70;;
3185;SDS011;1604;53.700;10.252;2024-02-28T03:45:04;41.93;;;21.33;;
3185;SDS011;1604;53.700;10.252;2024-02-28T03:48:07;44.80;;;20.37;;
3185;SDS011;1604;53.700;10.252;2024-02-28T03:51:08;49.80;;;21.37;;
3185;SDS011;1604;53.700;10.252;2024-02-28T03:54:12;48.77;;;23.40;;
3185;SDS011;1604;53.700;10.252;2024-02-28T03:57:14;38.83;;;21.13;;
3185;SDS011;1604;53.700;10.252;2024-02-28T04:00:17;44.53;;;20.20;;
3185;SDS011;1604;53.700;10.252;2024-02-28T04:03:19;42.40;;;22.03;;
3185;SDS011;1604;53.700;10.252;2024-02-28T04:06:21;46.17;;;22.27;;
3185;SDS011;1604;53.700;10.252;2024-02-28T04:09:24;44.80;;;20.80;;
3185;SDS011;1604;53.700;10.252;2024-02-28T04:12:26;41.60;;;20.57;;
3185;SDS011;1604;53.700;10.252;2024-02-28T04:15:29;38.53;;;18.27;;
3185;SDS011;1604;53.700;10.252;2024-02-28T04:18:31;42.33;;;21.63;;
3185;SDS011;1604;53.700;10.252;2024-02-28T04:21:34;47.93;;;19.70;;
3185;SDS011;1604;53.700;10.252;2024-02-28T04:24:37;38.57;;;20.37;;
3185;SDS011;1604;53.700;10.252;2024-02-28T04:27:39;37.60;;;18.67;;
3185;SDS011;1604;53.700;10.252;2024-02-28T04:30:41;45.00;;;20.67;;
3185;SDS011;1604;53.700;10.252;2024-02-28T04:33:43;48.43;;;19.80;;
3185;SDS011;1604;53.700;10.252;2024-02-28T04:36:45;48.77;;;21.87;;
3185;SDS011;1604;53.700;10.252;2024-02-28T04:39:48;37.93;;;19.10;;
3185;SDS011;1604;53.700;10.252;2024-02-28T04:42:50;43.47;;;20.97;;
3185;SDS011;1604;53.700;10.252;2024-02-28T04:45:52;40.17;;;18.37;;
3185;SDS011;1604;53.700;10.252;2024-02-28T04:48:54;42.63;;;20.00;;
3185;SDS011;1604;53.700;10.252;2024-02-28T04:51:56;43.57;;;21.27;;
3185;SDS011;1604;53.700;10.252;2024-02-28T04:55:00;40.23;;;18.53;;
3185;SDS011;1604;53.700;10.252;2024-02-28T04:58:02;42.83;;;19.13;;
3185;SDS011;1604;53.700;10.252;2024-02-28T05:01:04;38.27;;;18.37;;
3185;SDS011;1604;53.700;10.252;2024-02-28T05:04:06;38.47;;;18.10;;
3185;SDS011;1604;53.700;10.252;2024-02-28T05:07:08;46.27;;;23.00;;
3185;SDS011;1604;53.700;10.252;2024-02-28T05:10:12;36.07;;;18.27;;
3185;SDS011;1604;53.700;10.252;2024-02-28T05:13:14;42.53;;;19.10;;
3185;SDS011;1604;53.700;10.252;2024-02-28T05:16:16;42.10;;;19.50;;
3185;SDS011;1604;53.700;10.252;2024-02-28T05:19:18;44.27;;;21.20;;
3185;SDS011;1604;53.700;10.252;2024-02-28T05:22:20;46.10;;;21.90;;
3185;SDS011;1604;53.700;10.252;2024-02-28T05:25:23;51.17;;;21.93;;
3185;SDS011;1604;53.700;10.252;2024-02-28T05:28:25;52.17;;;22.87;;
3185;SDS011;1604;53.700;10.252;2024-02-28T05:31:27;50.33;;;21.00;;
3185;SDS011;1604;53.700;10.252;2024-02-28T05:34:29;55.80;;;22.47;;
3185;SDS011;1604;53.700;10.252;2024-02-28T05:37:31;49.20;;;22.70;;
3185;SDS011;1604;53.700;10.252;2024-02-28T05:40:36;47.10;;;23.00;;
3185;SDS011;1604;53.700;10.252;2024-02-28T05:43:38;51.20;;;21.90;;
3185;SDS011;1604;53.700;10.252;2024-02-28T05:46:40;50.63;;;23.67;;
3185;SDS011;1604;53.700;10.252;2024-02-28T05:49:42;48.07;;;23.60;;
3185;SDS011;1604;53.700;10.252;2024-02-28T05:52:44;61.53;;;24.33;;
3185;SDS011;1604;53.700;10.252;2024-02-28T05:55:47;45.80;;;21.73;;
3185;SDS011;1604;53.700;10.252;2024-02-28T05:58:49;61.23;;;24.53;;
3185;SDS011;1604;53.700;10.252;2024-02-28T06:01:51;51.40;;;24.40;;
3185;SDS011;1604;53.700;10.252;2024-02-28T06:04:53;56.37;;;21.47;;
3185;SDS011;1604;53.700;10.252;2024-02-28T06:07:55;44.63;;;20.93;;
3185;SDS011;1604;53.700;10.252;2024-02-28T06:10:58;46.60;;;21.70;;
3185;SDS011;1604;53.700;10.252;2024-02-28T06:14:00;45.90;;;20.40;;
3185;SDS011;1604;53.700;10.252;2024-02-28T06:17:04;59.87;;;23.63;;
3185;SDS011;1604;53.700;10.252;2024-02-28T06:20:06;46.77;;;20.73;;
3185;SDS011;1604;53.700;10.252;2024-02-28T06:23:09;52.20;;;23.10;;
3185;SDS011;1604;53.700;10.252;2024-02-28T06:26:12;46.30;;;21.03;;
3185;SDS011;1604;53.700;10.252;2024-02-28T06:29:16;52.77;;;22.00;;
3185;SDS011;1604;53.700;10.252;2024-02-28T06:32:22;45.20;;;21.30;;
3185;SDS011;1604;53.700;10.252;2024-02-28T06:35:25;45.20;;;20.60;;
3185;SDS011;1604;53.700;10.252;2024-02-28T06:38:27;53.40;;;21.97;;
3185;SDS011;1604;53.700;10.252;2024-02-28T06:41:34;47.27;;;22.87;;
3185;SDS011;1604;53.700;10.252;2024-02-28T06:44:36;44.60;;;20.80;;
3185;SDS011;1604;53.700;10.252;2024-02-28T06:47:38;46.50;;;20.87;;
3185;SDS011;1604;53.700;10.252;2024-02-28T06:50:40;46.13;;;19.87;;
3185;SDS011;1604;53.700;10.252;2024-02-28T06:53:42;44.93;;;20.40;;
3185;SDS011;1604;53.700;10.252;2024-02-28T06:56:45;38.93;;;17.57;;
3185;SDS011;1604;53.700;10.252;2024-02-28T06:59:47;44.57;;;20.33;;
3185;SDS011;1604;53.700;10.252;2024-02-28T07:02:49;41.80;;;21.00;;
3185;SDS011;1604;53.700;10.252;2024-02-28T07:05:51;40.70;;;21.07;;
3185;SDS011;1604;53.700;10.252;2024-02-28T07:08:55;41.00;;;19.57;;
3185;SDS011;1604;53.700;10.252;2024-02-28T07:11:58;44.17;;;18.70;;
3185;SDS011;1604;53.700;10.252;2024-02-28T07:15:01;41.70;;;19.17;;
3185;SDS011;1604;53.700;10.252;2024-02-28T07:18:03;36.57;;;16.73;;
3185;SDS011;1604;53.700;10.252;2024-02-28T07:21:05;33.40;;;16.40;;
3185;SDS011;1604;53.700;10.252;2024-02-28T07:24:08;31.87;;;16.60;;
3185;SDS011;1604;53.700;10.252;2024-02-28T07:27:11;30.23;;;15.80;;
3185;SDS011;1604;53.700;10.252;2024-02-28T07:30:13;30.40;;;15.27;;
3185;SDS011;1604;53.700;10.252;2024-02-28T07:33:15;30.30;;;16.63;;
3185;SDS011;1604;53.700;10.252;2024-02-28T07:36:17;32.13;;;17.80;;
3185;SDS011;1604;53.700;10.252;2024-02-28T07:39:19;30.30;;;17.23;;
3185;SDS011;1604;53.700;10.252;2024-02-28T07:42:22;35.20;;;15.80;;
3185;SDS011;1604;53.700;10.252;2024-02-28T07:45:24;30.83;;;16.07;;
3185;SDS011;1604;53.700;10.252;2024-02-28T07:48:26;30.97;;;14.43;;
3185;SDS011;1604;53.700;10.252;2024-02-28T07:51:28;28.50;;;12.50;;
3185;SDS011;1604;53.700;10.252;2024-02-28T07:54:30;31.93;;;14.90;;
3185;SDS011;1604;53.700;10.252;2024-02-28T07:57:34;33.70;;;17.63;;
3185;SDS011;1604;53.700;10.252;2024-02-28T08:00:36;30.00;;;14.27;;
3185;SDS011;1604;53.700;10.252;2024-02-28T08:03:38;34.00;;;16.60;;
3185;SDS011;1604;53.700;10.252;2024-02-28T08:06:40;28.30;;;13.60;;
3185;SDS011;1604;53.700;10.252;2024-02-28T08:09:43;27.97;;;15.73;;
3185;SDS011;1604;53.700;10.252;2024-02-28T08:12:46;34.00;;;16.50;;
3185;SDS011;1604;53.700;10.252;2024-02-28T08:15:48;28.10;;;16.20;;
3185;SDS011;1604;53.700;10.252;2024-02-28T08:18:50;34.70;;;17.97;;
3185;SDS011;1604;53.700;10.252;2024-02-28T08:21:52;30.37;;;16.93;;
3185;SDS011;1604;53.700;10.252;2024-02-28T08:24:54;33.97;;;18.00;;
3185;SDS011;1604;53.700;10.252;2024-02-28T08:27:57;30.77;;;17.43;;
3185;SDS011;1604;53.700;10.252;2024-02-28T08:30:59;37.67;;;18.40;;
3185;SDS011;1604;53.700;10.252;2024-02-28T08:34:01;34.43;;;18.17;;
3185;SDS011;1604;53.700;10.252;2024-02-28T08:37:04;33.10;;;19.33;;
3185;SDS011;1604;53.700;10.252;2024-02-28T08:40:06;35.47;;;17.67;;
3185;SDS011;1604;53.700;10.252;2024-02-28T08:43:10;40.03;;;19.50;;
3185;SDS011;1604;53.700;10.252;2024-02-28T08:46:13;36.73;;;18.10;;
3185;SDS011;1604;53.700;10.252;2024-02-28T08:49:15;35.70;;;15.97;;
3185;SDS011;1604;53.700;10.252;2024-02-28T08:52:17;33.40;;;18.27;;
3185;SDS011;1604;53.700;10.252;2024-02-28T08:55:19;35.90;;;18.10;;
3185;SDS011;1604;53.700;10.252;2024-02-28T08:58:23;35.17;;;18.07;;
3185;SDS011;1604;53.700;10.252;2024-02-28T09:01:25;31.20;;;17.03;;
3185;SDS011;1604;53.700;10.252;2024-02-28T09:04:27;35.63;;;18.47;;
3185;SDS011;1604;53.700;10.252;2024-02-28T09:07:29;37.17;;;18.53;;
3185;SDS011;1604;53.700;10.252;2024-02-28T09:10:31;37.37;;;19.03;;
3185;SDS011;1604;53.700;10.252;2024-02-28T09:13:35;37.73;;;18.90;;
3185;SDS011;1604;53.700;10.252;2024-02-28T09:16:37;42.30;;;20.10;;
3185;SDS011;1604;53.700;10.252;2024-02-28T09:19:39;37.30;;;18.70;;
3185;SDS011;1604;53.700;10.252;2024-02-28T09:22:41;39.43;;;19.13;;
3185;SDS011;1604;53.700;10.252;2024-02-28T09:25:43;37.53;;;19.40;;
3185;SDS011;1604;53.700;10.252;2024-02-28T09:28:47;38.50;;;19.70;;
3185;SDS011;1604;53.700;10.252;2024-02-28T09:31:49;40.53;;;21.37;;
3185;SDS011;1604;53.700;10.252;2024-02-28T09:34:51;31.43;;;18.30;;
3185;SDS011;1604;53.700;10.252;2024-02-28T09:37:53;36.20;;;19.17;;
3185;SDS011;1604;53.700;10.252;2024-02-28T09:40:54;42.30;;;21.30;;
3185;SDS011;1604;53.700;10.252;2024-02-28T09:43:58;37.57;;;19.57;;
3185;SDS011;1604;53.700;10.252;2024-02-28T09:47:03;40.90;;;20.40;;
3185;SDS011;1604;53.700;10.252;2024-02-28T09:50:05;33.90;;;21.47;;
3185;SDS011;1604;53.700;10.252;2024-02-28T09:53:09;34.70;;;19.43;;
3185;SDS011;1604;53.700;10.252;2024-02-28T09:56:11;35.70;;;20.60;;
3185;SDS011;1604;53.700;10.252;2024-02-28T09:59:15;38.53;;;21.23;;
3185;SDS011;1604;53.700;10.252;2024-02-28T10:02:19;35.67;;;20.60;;
3185;SDS011;1604;53.700;10.252;2024-02-28T10:05:22;36.10;;;18.00;;
3185;SDS011;1604;53.700;10.252;2024-02-28T10:08:26;41.90;;;21.27;;
3185;SDS011;1604;53.700;10.252;2024-02-28T10:11:29;39.83;;;20.03;;
3185;SDS011;1604;53.700;10.252;2024-02-28T10:14:32;42.63;;;20.93;;
3185;SDS011;1604;53.700;10.252;2024-02-28T10:17:34;36.90;;;20.10;;
3185;SDS011;1604;53.700;10.252;2024-02-28T10:20:36;42.20;;;21.03;;
3185;SDS011;1604;53.700;10.252;2024-02-28T10:23:38;39.97;;;20.37;;
3185;SDS011;1604;53.700;10.252;2024-02-28T10:26:44;41.33;;;20.30;;
3185;SDS011;1604;53.700;10.252;2024-02-28T10:29:49;44.47;;;20.90;;
3185;SDS011;1604;53.700;10.252;2024-02-28T10:32:51;35.87;;;20.20;;
3185;SDS011;1604;53.700;10.252;2024-02-28T10:35:53;32.53;;;17.87;;
3185;SDS011;1604;53.700;10.252;2024-02-28T10:38:56;37.97;;;20.10;;
3185;SDS011;1604;53.700;10.252;2024-02-28T10:41:58;43.97;;;20.33;;
3185;SDS011;1604;53.700;10.252;2024-02-28T10:45:02;37.63;;;19.80;;
3185;SDS011;1604;53.700;10.252;2024-02-28T10:48:05;41.23;;;20.30;;
3185;SDS011;1604;53.700;10.252;2024-02-28T10:51:08;39.63;;;21.27;;
3185;SDS011;1604;53.700;10.252;2024-02-28T10:54:16;35.10;;;18.87;;
3185;SDS011;1604;53.700;10.252;2024-02-28T10:57:22;35.30;;;19.93;;
3185;SDS011;1604;53.700;10.252;2024-02-28T11:00:27;38.50;;;21.53;;
3185;SDS011;1604;53.700;10.252;2024-02-28T11:03:30;36.43;;;20.00;;
3185;SDS011;1604;53.700;10.252;2024-02-28T11:06:35;31.20;;;18.80;;
3185;SDS011;1604;53.700;10.252;2024-02-28T11:09:54;30.83;;;17.87;;
3185;SDS011;1604;53.700;10.252;2024-02-28T11:12:57;29.20;;;19.07;;
3185;SDS011;1604;53.700;10.252;2024-02-28T11:16:08;42.90;;;19.70;;
3185;SDS011;1604;53.700;10.252;2024-02-28T11:19:10;26.97;;;15.53;;
3185;SDS011;1604;53.700;10.252;2024-02-28T11:22:21;29.43;;;17.33;;
3185;SDS011;1604;53.700;10.252;2024-02-28T11:25:23;30.27;;;17.50;;
3185;SDS011;1604;53.700;10.252;2024-02-28T11:28:25;27.10;;;17.33;;
3185;SDS011;1604;53.700;10.252;2024-02-28T11:31:28;30.30;;;17.10;;
3185;SDS011;1604;53.700;10.252;2024-02-28T11:34:30;30.17;;;16.57;;
3185;SDS011;1604;53.700;10.252;2024-02-28T11:37:32;29.37;;;17.23;;
3185;SDS011;1604;53.700;10.252;2024-02-28T11:40:35;34.37;;;17.40;;
3185;SDS011;1604;53.700;10.252;2024-02-28T11:43:37;31.17;;;15.73;;
3185;SDS011;1604;53.700;10.252;2024-02-28T11:46:43;26.63;;;16.53;;
3185;SDS011;1604;53.700;10.252;2024-02-28T11:49:46;31.83;;;14.80;;
3185;SDS011;1604;53.700;10.252;2024-02-28T11:52:48;26.73;;;15.07;;
3185;SDS011;1604;53.700;10.252;2024-02-28T11:55:50;28.97;;;15.83;;
3185;SDS011;1604;53.700;10.252;2024-02-28T11:58:52;21.93;;;13.40;;
3185;SDS011;1604;53.700;10.252;2024-02-28T12:01:56;20.70;;;13.07;;
3185;SDS011;1604;53.700;10.252;2024-02-28T12:05:00;25.83;;;13.97;;
3185;SDS011;1604;53.700;10.252;2024-02-28T12:08:02;25.83;;;15.67;;
3185;SDS011;1604;53.700;10.252;2024-02-28T12:11:07;27.50;;;16.47;;
3185;SDS011;1604;53.700;10.252;2024-02-28T12:14:10;33.33;;;18.20;;
3185;SDS011;1604;53.700;10.252;2024-02-28T12:17:15;28.23;;;16.90;;
3185;SDS011;1604;53.700;10.252;2024-02-28T12:20:18;28.50;;;15.77;;
3185;SDS011;1604;53.700;10.252;2024-02-28T12:23:20;28.70;;;14.87;;
3185;SDS011;1604;53.700;10.252;2024-02-28T12:26:22;24.50;;;15.10;;
3185;SDS011;1604;53.700;10.252;2024-02-28T12:29:24;24.50;;;14.33;;
3185;SDS011;1604;53.700;10.252;2024-02-28T12:32:27;26.73;;;15.00;;
3185;SDS011;1604;53.700;10.252;2024-02-28T12:35:29;30.33;;;16.67;;
3185;SDS011;1604;53.700;10.252;2024-02-28T12:38:31;34.70;;;19.73;;
3185;SDS011;1604;53.700;10.252;2024-02-28T12:41:33;36.00;;;19.80;;
3185;SDS011;1604;53.700;10.252;2024-02-28T12:44:37;27.90;;;17.50;;
3185;SDS011;1604;53.700;10.252;2024-02-28T12:47:42;26.97;;;16.13;;
3185;SDS011;1604;53.700;10.252;2024-02-28T12:50:44;31.27;;;17.20;;
3185;SDS011;1604;53.700;10.252;2024-02-28T12:53:46;26.10;;;15.90;;
3185;SDS011;1604;53.700;10.252;2024-02-28T12:56:49;30.03;;;18.47;;
3185;SDS011;1604;53.700;10.252;2024-02-28T12:59:51;28.03;;;15.90;;
3185;SDS011;1604;53.700;10.252;2024-02-28T13:02:54;34.70;;;18.40;;
3185;SDS011;1604;53.700;10.252;2024-02-28T13:05:56;27.10;;;17.20;;
3185;SDS011;1604;53.700;10.252;2024-02-28T13:08:58;32.20;;;17.37;;
3185;SDS011;1604;53.700;10.252;2024-02-28T13:12:00;34.90;;;16.87;;
3185;SDS011;1604;53.700;10.252;2024-02-28T13:15:03;29.27;;;14.50;;
3185;SDS011;1604;53.700;10.252;2024-02-28T13:18:07;25.13;;;13.40;;
3185;SDS011;1604;53.700;10.252;2024-02-28T13:21:11;26.17;;;15.10;;
3185;SDS011;1604;53.700;10.252;2024-02-28T13:24:13;21.50;;;12.43;;
3185;SDS011;1604;53.700;10.252;2024-02-28T13:27:17;19.20;;;12.17;;
3185;SDS011;1604;53.700;10.252;2024-02-28T13:30:19;17.83;;;10.87;;
3185;SDS011;1604;53.700;10.252;2024-02-28T13:33:22;21.87;;;13.37;;
3185;SDS011;1604;53.700;10.252;2024-02-28T13:36:24;24.23;;;13.77;;
3185;SDS011;1604;53.700;10.252;2024-02-28T13:39:26;24.90;;;14.27;;
3185;SDS011;1604;53.700;10.252;2024-02-28T13:42:28;19.27;;;13.63;;
3185;SDS011;1604;53.700;10.252;2024-02-28T13:45:30;26.80;;;14.00;;
3185;SDS011;1604;53.700;10.252;2024-02-28T13:48:33;26.70;;;15.23;;
3185;SDS011;1604;53.700;10.252;2024-02-28T13:51:35;24.70;;;15.57;;
3185;SDS011;1604;53.700;10.252;2024-02-28T13:54:37;29.93;;;15.50;;
3185;SDS011;1604;53.700;10.252;2024-02-28T13:57:39;24.70;;;13.53;;
3185;SDS011;1604;53.700;10.252;2024-02-28T14:00:41;25.40;;;14.63;;
3185;SDS011;1604;53.700;10.252;2024-02-28T14:03:46;30.37;;;16.10;;
3185;SDS011;1604;53.700;10.252;2024-02-28T14:06:48;32.07;;;14.27;;
3185;SDS011;1604;53.700;10.252;2024-02-28T14:09:50;24.60;;;14.50;;
3185;SDS011;1604;53.700;10.252;2024-02-28T14:12:52;21.70;;;13.40;;
3185;SDS011;1604;53.700;10.252;2024-02-28T14:15:54;21.70;;;12.50;;
3185;SDS011;1604;53.700;10.252;2024-02-28T14:18:57;25.93;;;14.30;;
3185;SDS011;1604;53.700;10.252;2024-02-28T14:22:00;26.37;;;13.83;;
3185;SDS011;1604;53.700;10.252;2024-02-28T14:25:02;26.47;;;14.40;;
3185;SDS011;1604;53.700;10.252;2024-02-28T14:28:05;28.37;;;14.80;;
3185;SDS011;1604;53.700;10.252;2024-02-28T14:31:07;26.87;;;15.10;;
3185;SDS011;1604;53.700;10.252;2024-02-28T14:34:11;25.73;;;15.30;;
3185;SDS011;1604;53.700;10.252;2024-02-28T14:37:13;34.43;;;15.17;;
3185;SDS011;1604;53.700;10.252;2024-02-28T14:40:15;25.63;;;14.77;;
3185;SDS011;1604;53.700;10.252;2024-02-28T14:43:17;24.67;;;13.17;;
3185;SDS011;1604;53.700;10.252;2024-02-28T14:46:19;28.80;;;16.27;;
3185;SDS011;1604;53.700;10.252;2024-02-28T14:49:23;27.13;;;14.40;;
3185;SDS011;1604;53.700;10.252;2024-02-28T14:52:25;28.10;;;14.50;;
3185;SDS011;1604;53.700;10.252;2024-02-28T14:55:27;24.17;;;13.33;;
3185;SDS011;1604;53.700;10.252;2024-02-28T14:58:30;22.70;;;13.43;;
3185;SDS011;1604;53.700;10.252;2024-02-28T15:01:32;30.40;;;12.93;;
3185;SDS011;1604;53.700;10.252;2024-02-28T15:04:35;27.30;;;13.63;;
3185;SDS011;1604;53.700;10.252;2024-02-28T15:07:37;22.43;;;13.10;;
3185;SDS011;1604;53.700;10.252;2024-02-28T15:10:40;25.90;;;13.50;;
3185;SDS011;1604;53.700;10.252;2024-02-28T15:13:42;30.23;;;14.73;;
3185;SDS011;1604;53.700;10.252;2024-02-28T15:16:44;26.20;;;14.70;;
3185;SDS011;1604;53.700;10.252;2024-02-28T15:19:47;25.03;;;13.80;;
3185;SDS011;1604;53.700;10.252;2024-02-28T15:22:49;22.87;;;12.47;;
3185;SDS011;1604;53.700;10.252;2024-02-28T15:25:51;22.00;;;13.47;;
3185;SDS011;1604;53.700;10.252;2024-02-28T15:28:54;23.90;;;13.30;;
3185;SDS011;1604;53.700;10.252;2024-02-28T15:31:56;25.37;;;14.13;;
3185;SDS011;1604;53.700;10.252;2024-02-28T15:34:59;21.40;;;12.97;;
3185;SDS011;1604;53.700;10.252;2024-02-28T15:38:01;26.53;;;14.40;;
3185;SDS011;1604;53.700;10.252;2024-02-28T15:41:03;23.27;;;13.10;;
3185;SDS011;1604;53.700;10.252;2024-02-28T15:44:05;28.40;;;15.90;;
3185;SDS011;1604;53.700;10.252;2024-02-28T15:47:07;22.00;;;13.50;;
3185;SDS011;1604;53.700;10.252;2024-02-28T15:50:11;21.40;;;13.97;;
3185;SDS011;1604;53.700;10.252;2024-02-28T15:53:13;40.10;;;16.00;;
3185;SDS011;1604;53.700;10.252;2024-02-28T15:56:15;23.53;;;14.80;;
3185;SDS011;1604;53.700;10.252;2024-02-28T15:59:17;20.43;;;13.70;;
3185;SDS011;1604;53.700;10.252;2024-02-28T16:02:19;29.23;;;15.10;;
3185;SDS011;1604;53.700;10.252;2024-02-28T16:05:22;25.07;;;15.10;;
3185;SDS011;1604;53.700;10.252;2024-02-28T16:08:26;25.07;;;15.50;;
3185;SDS011;1604;53.700;10.252;2024-02-28T16:11:28;25.50;;;15.47;;
3185;SDS011;1604;53.700;10.252;2024-02-28T16:14:30;28.50;;;16.27;;
3185;SDS011;1604;53.700;10.252;2024-02-28T16:17:32;24.73;;;15.00;;
3185;SDS011;1604;53.700;10.252;2024-02-28T16:20:36;33.17;;;21.20;;
3185;SDS011;1604;53.700;10.252;2024-02-28T16:23:38;24.73;;;17.10;;
3185;SDS011;1604;53.700;10.252;2024-02-28T16:26:40;25.93;;;16.77;;
3185;SDS011;1604;53.700;10.252;2024-02-28T16:29:42;24.47;;;16.17;;
3185;SDS011;1604;53.700;10.252;2024-02-28T16:32:44;27.23;;;15.90;;
3185;SDS011;1604;53.700;10.252;2024-02-28T16:35:48;25.27;;;14.80;;
3185;SDS011;1604;53.700;10.252;2024-02-28T16:38:49;24.00;;;13.20;;
3185;SDS011;1604;53.700;10.252;2024-02-28T16:41:53;24.20;;;14.40;;
3185;SDS011;1604;53.700;10.252;2024-02-28T16:44:55;27.60;;;15.57;;
3185;SDS011;1604;53.700;10.252;2024-02-28T16:47:57;21.30;;;12.20;;
3185;SDS011;1604;53.700;10.252;2024-02-28T16:51:00;21.07;;;12.37;;
3185;SDS011;1604;53.700;10.252;2024-02-28T16:54:03;22.10;;;13.47;;
3185;SDS011;1604;53.700;10.252;2024-02-28T16:57:05;26.50;;;15.80;;
3185;SDS011;1604;53.700;10.252;2024-02-28T17:00:07;23.43;;;13.90;;
3185;SDS011;1604;53.700;10.252;2024-02-28T17:03:10;20.73;;;13.20;;
3185;SDS011;1604;53.700;10.252;2024-02-28T17:06:13;24.60;;;14.60;;
3185;SDS011;1604;53.700;10.252;2024-02-28T17:09:15;18.93;;;13.37;;
3185;SDS011;1604;53.700;10.252;2024-02-28T17:12:17;27.70;;;16.27;;
3185;SDS011;1604;53.700;10.252;2024-02-28T17:15:19;28.17;;;15.30;;
3185;SDS011;1604;53.700;10.252;2024-02-28T17:18:21;25.50;;;14.23;;
3185;SDS011;1604;53.700;10.252;2024-02-28T17:21:24;33.17;;;15.10;;
3185;SDS011;1604;53.700;10.252;2024-02-28T17:24:26;26.10;;;15.20;;
3185;SDS011;1604;53.700;10.252;2024-02-28T17:27:28;29.50;;;15.07;;
3185;SDS011;1604;53.700;10.252;2024-02-28T17:30:30;30.87;;;17.20;;
3185;SDS011;1604;53.700;10.252;2024-02-28T17:33:32;24.23;;;14.50;;
3185;SDS011;1604;53.700;10.252;2024-02-28T17:36:35;27.63;;;15.50;;
3185;SDS011;1604;53.700;10.252;2024-02-28T17:39:40;29.70;;;15.93;;
3185;SDS011;1604;53.700;10.252;2024-02-28T17:42:42;30.20;;;15.10;;
3185;SDS011;1604;53.700;10.252;2024-02-28T17:45:44;30.57;;;16.20;;
3185;SDS011;1604;53.700;10.252;2024-02-28T17:48:49;27.47;;;14.97;;
3185;SDS011;1604;53.700;10.252;2024-02-28T17:51:52;24.53;;;14.80;;
3185;SDS011;1604;53.700;10.252;2024-02-28T17:54:55;27.97;;;15.97;;
3185;SDS011;1604;53.700;10.252;2024-02-28T17:57:58;33.60;;;16.63;;
3185;SDS011;1604;53.700;10.252;2024-02-28T18:01:00;31.90;;;15.53;;
3185;SDS011;1604;53.700;10.252;2024-02-28T18:04:05;29.57;;;17.20;;